Time;durP1;ratioP1;P1;durP2;ratioP2;P2;SDS_P1;SDS_P2;PMS_P1;PMS_P2;Temp;Humidity;BMP_temperature;BMP_pressure;BME280_temperature;BME280_humidity;BME280_pressure;Samples;Min_cycle;Max_cycle;Signal;HPM_P1;HPM_P2
2022/10/18 00:02:09;;;;;;;;;;;21.00;99.90;;;;;;5000181;28;19926;-62
2022/10/18 00:04:36;;;;;;;;;;;21.00;99.90;;;;;;4994726;28;20032;-65
2022/10/18 00:07:04;;;;;;;;;;;21.00;99.90;;;;;;4995337;28;19932;-64
2022/10/18 00:09:31;;;;;;;;;;;20.90;99.90;;;;;;4994219;28;19945;-65
2022/10/18 00:11:58;;;;;;;;;;;21.00;99.90;;;;;;4989109;28;19930;-62
2022/10/18 00:14:25;;;;;;;;;;;21.00;99.90;;;;;;4990066;28;19926;-62
2022/10/18 00:16:52;;;;;;;;;;;20.90;99.90;;;;;;4980850;28;19929;-62
2022/10/18 00:19:19;;;;;;;;;;;21.00;99.90;;;;;;4980707;28;19937;-64
2022/10/18 00:21:52;;;;;;;;;;;21.00;99.90;;;;;;4987262;28;19933;-63
2022/10/18 00:24:19;;;;;;;;;;;20.90;99.90;;;;;;4997039;28;20314;-61
2022/10/18 00:26:46;;;;;;;;;;;20.90;99.90;;;;;;5008996;28;19945;-62
2022/10/18 00:29:14;;;;;;;;;;;20.90;99.90;;;;;;4990805;28;19941;-60
2022/10/18 00:31:42;;;;;;;;;;;20.90;99.90;;;;;;5001185;28;19936;-61
2022/10/18 00:34:10;;;;;;;;;;;21.00;99.90;;;;;;4976570;28;20422;-60
2022/10/18 00:36:37;;;;;;;;;;;20.90;99.90;;;;;;4981914;28;19930;-64
2022/10/18 00:39:05;;;;;;;;;;;20.90;99.90;;;;;;4993319;28;19926;-62
2022/10/18 00:41:34;;;;;;;;;;;20.90;99.90;;;;;;4995815;28;19937;-64
2022/10/18 00:44:02;;;;;;;;;;;20.90;99.90;;;;;;4983910;28;19932;-61
2022/10/18 00:46:31;;;;;;;;;;;20.90;99.90;;;;;;5010302;28;19936;-61
2022/10/18 00:49:00;;;;;;;;;;;20.90;99.90;;;;;;4999326;28;19930;-63
2022/10/18 00:51:35;;;;;;;;;;;20.90;99.90;;;;;;4997723;28;19930;-60
2022/10/18 00:54:02;;;;;;;;;;;20.90;99.90;;;;;;4985445;28;19936;-63
2022/10/18 00:56:29;;;;;;;;;;;20.90;99.90;;;;;;5000419;28;19930;-61
2022/10/18 00:58:56;;;;;;;;;;;20.90;99.90;;;;;;4988071;28;20319;-63
2022/10/18 01:01:23;;;;;;;;;;;20.90;99.90;;;;;;4991446;28;19929;-57
2022/10/18 01:03:55;;;;;;;;;;;20.90;99.90;;;;;;4994533;28;19933;-59
2022/10/18 01:06:22;;;;;;;;;;;20.90;99.90;;;;;;4985449;28;20377;-61
2022/10/18 01:09:13;;;;;;;;;;;20.90;99.90;;;;;;4985445;28;20167;-62
2022/10/18 01:12:06;;;;;;;;;;;20.90;99.90;;;;;;4988026;28;19952;-59
2022/10/18 01:14:51;;;;;;;;;;;20.90;99.90;;;;;;4990616;28;20305;-62
2022/10/18 01:17:36;;;;;;;;;;;20.90;99.90;;;;;;5000438;28;20301;-61
2022/10/18 01:20:09;;;;;;;;;;;20.90;99.90;;;;;;4986343;28;19930;-62
2022/10/18 01:22:38;;;;;;;;;;;20.90;99.90;;;;;;4992477;28;20448;-61
2022/10/18 01:25:11;;;;;;;;;;;20.90;99.90;;;;;;4992317;28;19929;-60
2022/10/18 01:27:38;;;;;;;;;;;20.90;99.90;;;;;;5004377;28;19929;-61
2022/10/18 01:30:13;;;;;;;;;;;20.90;99.90;;;;;;4984236;28;19930;-60
2022/10/18 01:32:43;;;;;;;;;;;20.90;99.90;;;;;;4982988;28;19930;-61
2022/10/18 01:35:12;;;;;;;;;;;20.90;99.90;;;;;;4993061;28;19933;-60
2022/10/18 01:37:42;;;;;;;;;;;20.90;99.90;;;;;;4986206;28;19926;-62
2022/10/18 01:40:11;;;;;;;;;;;20.90;99.90;;;;;;4991675;28;20432;-62
2022/10/18 01:42:38;;;;;;;;;;;20.90;99.90;;;;;;5018373;28;19945;-64
2022/10/18 01:45:06;;;;;;;;;;;20.90;99.90;;;;;;4986076;28;20360;-61
2022/10/18 01:47:35;;;;;;;;;;;20.90;99.90;;;;;;4977571;28;19926;-63
2022/10/18 01:50:03;;;;;;;;;;;20.90;99.90;;;;;;4991653;28;19930;-62
2022/10/18 01:52:30;;;;;;;;;;;20.90;99.90;;;;;;4993380;28;19933;-60
2022/10/18 01:54:59;;;;;;;;;;;20.90;99.90;;;;;;4990498;28;19952;-62
2022/10/18 01:57:46;;;;;;;;;;;20.80;99.90;;;;;;5000503;28;19929;-62
2022/10/18 02:00:14;;;;;;;;;;;20.90;99.90;;;;;;4983333;28;19937;-64
2022/10/18 02:02:48;;;;;;;;;;;20.90;99.90;;;;;;4989186;28;20357;-62
2022/10/18 02:05:31;;;;;;;;;;;20.90;99.90;;;;;;4997298;28;19929;-63
2022/10/18 02:08:03;;;;;;;;;;;20.90;99.90;;;;;;4985387;28;19930;-63
2022/10/18 02:10:54;;;;;;;;;;;20.90;99.90;;;;;;5002766;28;19932;-63
2022/10/18 02:13:22;;;;;;;;;;;20.80;99.90;;;;;;5011579;28;19933;-63
2022/10/18 02:15:51;;;;;;;;;;;20.80;99.90;;;;;;4990419;28;20429;-62
2022/10/18 02:18:24;;;;;;;;;;;20.80;99.90;;;;;;4996424;28;19930;-64
2022/10/18 02:20:51;;;;;;;;;;;20.80;99.90;;;;;;5004803;28;19932;-62
2022/10/18 02:23:20;;;;;;;;;;;20.80;99.90;;;;;;5000802;28;19937;-63
2022/10/18 02:25:47;;;;;;;;;;;20.80;99.90;;;;;;4994379;28;19926;-61
2022/10/18 02:28:14;;;;;;;;;;;20.80;99.90;;;;;;4989556;28;19930;-60
2022/10/18 02:30:56;;;;;;;;;;;20.80;99.90;;;;;;4989561;28;19929;-63
2022/10/18 02:33:30;;;;;;;;;;;20.80;99.90;;;;;;5008124;28;19929;-62
2022/10/18 02:36:01;;;;;;;;;;;20.80;99.90;;;;;;4993491;28;19945;-60
2022/10/18 02:38:28;;;;;;;;;;;20.80;99.90;;;;;;4991705;28;20285;-62
2022/10/18 02:40:56;;;;;;;;;;;20.80;99.90;;;;;;4983563;28;19929;-63
2022/10/18 02:43:23;;;;;;;;;;;20.80;99.90;;;;;;4992846;28;19941;-61
2022/10/18 02:45:51;;;;;;;;;;;20.80;99.90;;;;;;4989245;28;19936;-62
2022/10/18 02:48:18;;;;;;;;;;;20.80;99.90;;;;;;4988867;28;20106;-63
2022/10/18 02:50:45;;;;;;;;;;;20.80;99.90;;;;;;4974573;28;19930;-62
2022/10/18 02:53:12;;;;;;;;;;;20.80;99.90;;;;;;4999406;28;19937;-61
2022/10/18 02:55:39;;;;;;;;;;;20.80;99.90;;;;;;4976604;28;19930;-61
2022/10/18 02:58:06;;;;;;;;;;;20.80;99.90;;;;;;4981561;28;20429;-62
2022/10/18 03:00:33;;;;;;;;;;;20.80;99.90;;;;;;4976138;28;19934;-61
2022/10/18 03:03:00;;;;;;;;;;;20.80;99.90;;;;;;5004805;28;19927;-59
2022/10/18 03:05:27;;;;;;;;;;;20.80;99.90;;;;;;4992537;28;21210;-60
2022/10/18 03:07:57;;;;;;;;;;;20.80;99.90;;;;;;4985838;28;19930;-62
2022/10/18 03:10:24;;;;;;;;;;;20.80;99.90;;;;;;4986494;28;19930;-62
2022/10/18 03:12:51;;;;;;;;;;;20.80;99.90;;;;;;4986964;28;19929;-62
2022/10/18 03:15:18;;;;;;;;;;;20.80;99.90;;;;;;5004626;28;19930;-60
2022/10/18 03:17:45;;;;;;;;;;;20.80;99.90;;;;;;4993160;28;19926;-60
2022/10/18 03:20:12;;;;;;;;;;;20.80;99.90;;;;;;4977541;28;19941;-59
2022/10/18 03:22:39;;;;;;;;;;;20.80;99.90;;;;;;4995378;28;19925;-61
2022/10/18 03:25:07;;;;;;;;;;;20.80;99.90;;;;;;4981227;28;19929;-58
2022/10/18 03:27:34;;;;;;;;;;;20.80;99.90;;;;;;4991562;28;19929;-59
2022/10/18 03:30:01;;;;;;;;;;;20.80;99.90;;;;;;4979767;28;19926;-61
2022/10/18 03:32:28;;;;;;;;;;;20.80;99.90;;;;;;4985415;28;19941;-61
2022/10/18 03:34:55;;;;;;;;;;;20.80;99.90;;;;;;4977800;28;19927;-63
2022/10/18 03:37:22;;;;;;;;;;;20.80;99.90;;;;;;4994782;28;19941;-62
2022/10/18 03:39:49;;;;;;;;;;;20.80;99.90;;;;;;4986832;28;19926;-60
2022/10/18 03:42:17;;;;;;;;;;;20.80;99.90;;;;;;4997760;28;19926;-62
2022/10/18 03:44:44;;;;;;;;;;;20.80;99.90;;;;;;4990610;28;19925;-62
2022/10/18 03:47:11;;;;;;;;;;;20.80;99.90;;;;;;4996312;28;19925;-61
2022/10/18 03:49:38;;;;;;;;;;;20.80;99.90;;;;;;4987428;28;19930;-60
2022/10/18 03:52:05;;;;;;;;;;;20.80;99.90;;;;;;4996538;28;19937;-60
2022/10/18 03:54:33;;;;;;;;;;;20.80;99.90;;;;;;4978618;28;19934;-62
2022/10/18 03:57:00;;;;;;;;;;;20.80;99.90;;;;;;5002519;28;19930;-62
2022/10/18 03:59:27;;;;;;;;;;;20.80;99.90;;;;;;4984579;28;19934;-62
2022/10/18 04:01:54;;;;;;;;;;;20.80;99.90;;;;;;4980137;28;20402;-60
2022/10/18 04:04:21;;;;;;;;;;;20.90;99.90;;;;;;4989785;28;19926;-62
2022/10/18 04:06:48;;;;;;;;;;;20.90;99.90;;;;;;4983869;28;19930;-61
2022/10/18 04:09:15;;;;;;;;;;;20.90;99.90;;;;;;4984565;28;19926;-63
2022/10/18 04:11:42;;;;;;;;;;;20.90;99.90;;;;;;4990169;28;19929;-61
2022/10/18 04:14:09;;;;;;;;;;;20.90;99.90;;;;;;4988751;28;19941;-64
2022/10/18 04:16:36;;;;;;;;;;;20.90;99.90;;;;;;4994527;28;19925;-63
2022/10/18 04:19:04;;;;;;;;;;;20.90;99.90;;;;;;4993059;28;19949;-61
2022/10/18 04:21:31;;;;;;;;;;;21.00;99.90;;;;;;5002363;28;20279;-62
2022/10/18 04:23:58;;;;;;;;;;;21.00;99.90;;;;;;4998187;28;19930;-63
2022/10/18 04:26:25;;;;;;;;;;;21.00;99.90;;;;;;5005677;28;19926;-64
2022/10/18 04:28:52;;;;;;;;;;;21.00;99.90;;;;;;5001038;28;19932;-63
2022/10/18 04:31:19;;;;;;;;;;;21.00;99.90;;;;;;4986057;28;19933;-62
2022/10/18 04:33:46;;;;;;;;;;;21.00;99.90;;;;;;4989147;28;19929;-64
2022/10/18 04:36:13;;;;;;;;;;;21.00;99.90;;;;;;4984618;28;19938;-61
2022/10/18 04:38:40;;;;;;;;;;;21.00;99.90;;;;;;4985262;28;19949;-61
2022/10/18 04:41:07;;;;;;;;;;;21.00;99.90;;;;;;5006212;28;19929;-63
2022/10/18 04:43:34;;;;;;;;;;;21.00;99.90;;;;;;4994241;28;19925;-60
2022/10/18 04:46:02;;;;;;;;;;;21.00;99.90;;;;;;4999930;28;19933;-60
2022/10/18 04:48:29;;;;;;;;;;;21.00;99.90;;;;;;4996193;28;19926;-60
2022/10/18 04:50:56;;;;;;;;;;;21.00;99.90;;;;;;4983178;28;19984;-61
2022/10/18 04:53:23;;;;;;;;;;;21.00;99.90;;;;;;4991489;28;19941;-63
2022/10/18 04:55:50;;;;;;;;;;;21.00;99.90;;;;;;4990685;28;19930;-62
2022/10/18 04:58:18;;;;;;;;;;;21.00;99.90;;;;;;4985274;28;19952;-63
2022/10/18 05:00:46;;;;;;;;;;;21.10;99.90;;;;;;4996576;28;19929;-61
2022/10/18 05:03:13;;;;;;;;;;;21.00;99.90;;;;;;4981139;28;20444;-62
2022/10/18 05:05:40;;;;;;;;;;;21.00;99.90;;;;;;4994327;28;19949;-58
2022/10/18 05:08:28;;;;;;;;;;;21.00;99.90;;;;;;4993923;28;19936;-61
2022/10/18 05:10:55;;;;;;;;;;;21.00;99.90;;;;;;4983829;28;19933;-62
2022/10/18 05:13:22;;;;;;;;;;;21.00;99.90;;;;;;4983572;28;19941;-58
2022/10/18 05:15:49;;;;;;;;;;;21.00;99.90;;;;;;4987757;28;19926;-61
2022/10/18 05:18:16;;;;;;;;;;;21.00;99.90;;;;;;4999556;28;19942;-60
2022/10/18 05:20:43;;;;;;;;;;;21.00;99.90;;;;;;5003158;28;19951;-59
2022/10/18 05:23:11;;;;;;;;;;;21.00;99.90;;;;;;4988691;28;19926;-60
2022/10/18 05:25:38;;;;;;;;;;;21.00;99.90;;;;;;4994422;28;19936;-60
2022/10/18 05:28:05;;;;;;;;;;;21.00;99.90;;;;;;4987983;28;20353;-63
2022/10/18 05:30:47;;;;;;;;;;;21.00;99.90;;;;;;4995640;28;19926;-62
2022/10/18 05:33:14;;;;;;;;;;;21.10;99.90;;;;;;4989890;28;20390;-60
2022/10/18 05:35:41;;;;;;;;;;;21.00;99.90;;;;;;4995944;28;19926;-62
2022/10/18 05:38:08;;;;;;;;;;;21.00;99.90;;;;;;4987472;28;19930;-58
2022/10/18 05:40:37;;;;;;;;;;;21.00;99.90;;;;;;4992222;28;19937;-62
2022/10/18 05:43:04;;;;;;;;;;;21.00;99.90;;;;;;4996095;28;19929;-61
2022/10/18 05:45:31;;;;;;;;;;;21.00;99.90;;;;;;5003241;28;19933;-63
2022/10/18 05:47:58;;;;;;;;;;;21.00;99.90;;;;;;4995144;28;19929;-60
2022/10/18 05:50:25;;;;;;;;;;;21.00;99.90;;;;;;5002470;28;20441;-62
2022/10/18 05:52:56;;;;;;;;;;;21.00;99.90;;;;;;4989723;28;20386;-64
2022/10/18 05:55:38;;;;;;;;;;;21.00;99.90;;;;;;4983411;28;19929;-62
2022/10/18 05:58:05;;;;;;;;;;;21.00;99.90;;;;;;4989011;28;19952;-61
2022/10/18 06:00:32;;;;;;;;;;;21.00;99.90;;;;;;4989154;28;19930;-62
2022/10/18 06:02:59;;;;;;;;;;;21.00;99.90;;;;;;4997567;28;19937;-61
2022/10/18 06:05:27;;;;;;;;;;;21.00;99.90;;;;;;4998504;28;20312;-63
2022/10/18 06:07:55;;;;;;;;;;;21.00;99.90;;;;;;4987862;28;19933;-62
2022/10/18 06:10:22;;;;;;;;;;;21.00;99.90;;;;;;4987167;28;19926;-61
2022/10/18 06:12:49;;;;;;;;;;;21.00;99.90;;;;;;4984949;28;19926;-62
2022/10/18 06:15:16;;;;;;;;;;;21.00;99.90;;;;;;4987836;28;19926;-62
2022/10/18 06:17:43;;;;;;;;;;;21.00;99.90;;;;;;4984632;28;19956;-61
2022/10/18 06:20:10;;;;;;;;;;;21.00;99.90;;;;;;4987656;28;19998;-60
2022/10/18 06:22:37;;;;;;;;;;;21.00;99.90;;;;;;4990931;28;19929;-62
2022/10/18 06:25:04;;;;;;;;;;;21.00;99.90;;;;;;4979702;28;19938;-62
2022/10/18 06:27:32;;;;;;;;;;;21.00;99.90;;;;;;4985355;28;20285;-61
2022/10/18 06:30:00;;;;;;;;;;;21.00;99.90;;;;;;4985505;28;20333;-60
2022/10/18 06:32:27;;;;;;;;;;;21.00;99.90;;;;;;5004016;28;20320;-64
2022/10/18 06:34:54;;;;;;;;;;;21.00;99.90;;;;;;5003825;28;19930;-62
2022/10/18 06:37:21;;;;;;;;;;;21.00;99.90;;;;;;5011554;28;19941;-62
2022/10/18 06:39:48;;;;;;;;;;;21.00;99.90;;;;;;4996722;28;20314;-63
2022/10/18 06:42:15;;;;;;;;;;;21.00;99.90;;;;;;4990893;28;19932;-64
2022/10/18 06:44:48;;;;;;;;;;;21.00;99.90;;;;;;5020220;28;19945;-64
2022/10/18 06:47:15;;;;;;;;;;;21.00;99.90;;;;;;4996833;28;19933;-63
2022/10/18 06:49:42;;;;;;;;;;;21.00;99.90;;;;;;4996619;28;19930;-63
2022/10/18 06:52:09;;;;;;;;;;;21.00;99.90;;;;;;4986454;28;19948;-61
2022/10/18 06:54:36;;;;;;;;;;;21.00;99.90;;;;;;4989014;28;19934;-63
2022/10/18 06:57:04;;;;;;;;;;;21.00;99.90;;;;;;4995813;28;19930;-63
2022/10/18 06:59:31;;;;;;;;;;;21.00;99.90;;;;;;4991100;28;19925;-60
2022/10/18 07:01:59;;;;;;;;;;;21.00;99.90;;;;;;4967497;28;20132;-60
2022/10/18 07:04:32;;;;;;;;;;;21.00;99.90;;;;;;4987955;28;19926;-60
2022/10/18 07:06:59;;;;;;;;;;;21.00;99.90;;;;;;4991203;28;20305;-60
2022/10/18 07:09:26;;;;;;;;;;;21.00;99.90;;;;;;4986069;28;19925;-59
2022/10/18 07:11:53;;;;;;;;;;;21.00;99.90;;;;;;4976395;28;20245;-63
2022/10/18 07:14:20;;;;;;;;;;;21.00;99.90;;;;;;4992482;28;19934;-60
2022/10/18 07:16:52;;;;;;;;;;;21.00;99.90;;;;;;4985322;28;19937;-58
2022/10/18 07:19:19;;;;;;;;;;;21.00;99.90;;;;;;4984144;28;20305;-60
2022/10/18 07:21:47;;;;;;;;;;;21.00;99.90;;;;;;5011487;28;19926;-60
2022/10/18 07:24:14;;;;;;;;;;;21.00;99.90;;;;;;4997134;28;19933;-62
2022/10/18 07:26:41;;;;;;;;;;;21.00;99.90;;;;;;5007498;28;19926;-61
2022/10/18 07:29:09;;;;;;;;;;;21.00;99.90;;;;;;4981745;28;19933;-64
2022/10/18 07:31:40;;;;;;;;;;;21.00;99.90;;;;;;4990921;28;19926;-63
2022/10/18 07:34:07;;;;;;;;;;;21.00;99.90;;;;;;4994391;28;19956;-61
2022/10/18 07:36:34;;;;;;;;;;;21.00;99.90;;;;;;4983452;28;20294;-63
2022/10/18 07:39:02;;;;;;;;;;;21.00;99.90;;;;;;4992373;28;20312;-63
2022/10/18 07:41:32;;;;;;;;;;;21.00;99.90;;;;;;4987162;28;20198;-64
2022/10/18 07:43:59;;;;;;;;;;;21.00;99.90;;;;;;4996694;28;19933;-62
2022/10/18 07:46:26;;;;;;;;;;;21.00;99.90;;;;;;4986826;28;19934;-62
2022/10/18 07:48:53;;;;;;;;;;;21.00;99.90;;;;;;4991803;28;20425;-64
2022/10/18 07:51:21;;;;;;;;;;;21.00;99.90;;;;;;4984504;28;20341;-63
2022/10/18 07:53:48;;;;;;;;;;;21.00;99.90;;;;;;4988352;28;19937;-60
2022/10/18 07:56:19;;;;;;;;;;;21.00;99.90;;;;;;4999280;28;19933;-61
2022/10/18 07:58:48;;;;;;;;;;;21.00;99.90;;;;;;4995423;28;20298;-61
2022/10/18 08:01:15;;;;;;;;;;;21.00;99.90;;;;;;4984027;28;19930;-61
2022/10/18 08:03:42;;;;;;;;;;;21.10;99.90;;;;;;4994644;28;19929;-62
2022/10/18 08:06:10;;;;;;;;;;;21.00;99.90;;;;;;5000820;28;19940;-61
2022/10/18 08:08:38;;;;;;;;;;;21.10;99.90;;;;;;4979998;28;20285;-62
2022/10/18 08:11:07;;;;;;;;;;;21.10;99.90;;;;;;4994185;28;19934;-61
2022/10/18 08:13:35;;;;;;;;;;;21.10;99.90;;;;;;4990817;28;19929;-64
2022/10/18 08:16:03;;;;;;;;;;;21.10;99.90;;;;;;4984080;28;19926;-60
2022/10/18 08:18:30;;;;;;;;;;;21.10;99.90;;;;;;4987432;28;19926;-60
2022/10/18 08:21:01;;;;;;;;;;;21.10;99.90;;;;;;4989131;28;19937;-61
2022/10/18 08:23:28;;;;;;;;;;;21.10;99.90;;;;;;5020029;28;19933;-62
2022/10/18 08:25:55;;;;;;;;;;;21.10;99.90;;;;;;4997613;28;19956;-63
2022/10/18 08:28:23;;;;;;;;;;;21.10;99.90;;;;;;5003725;28;19937;-62
2022/10/18 08:30:50;;;;;;;;;;;21.10;99.90;;;;;;4995270;28;19930;-64
2022/10/18 08:33:17;;;;;;;;;;;21.10;99.90;;;;;;4992927;28;20644;-60
2022/10/18 08:35:53;;;;;;;;;;;21.10;99.90;;;;;;4996044;28;19936;-62
2022/10/18 08:38:20;;;;;;;;;;;21.10;99.90;;;;;;5004749;28;19933;-62
2022/10/18 08:40:47;;;;;;;;;;;21.10;99.90;;;;;;4998948;28;19930;-63
2022/10/18 08:43:17;;;;;;;;;;;21.10;99.90;;;;;;5003350;28;19929;-62
2022/10/18 08:45:48;;;;;;;;;;;21.10;99.90;;;;;;5013726;28;19937;-62
2022/10/18 08:48:22;;;;;;;;;;;21.10;99.90;;;;;;5008705;28;19936;-64
2022/10/18 08:50:50;;;;;;;;;;;21.10;99.90;;;;;;4996450;28;19933;-60
2022/10/18 08:53:25;;;;;;;;;;;21.10;99.90;;;;;;5001277;28;19929;-63
2022/10/18 08:56:04;;;;;;;;;;;21.20;99.90;;;;;;4992508;28;19926;-63
2022/10/18 08:58:32;;;;;;;;;;;21.10;99.90;;;;;;5006201;28;19926;-60
2022/10/18 09:01:18;;;;;;;;;;;21.10;99.90;;;;;;4996026;28;19929;-62
2022/10/18 09:04:04;;;;;;;;;;;21.10;99.90;;;;;;4988121;28;20112;-62
2022/10/18 09:06:31;;;;;;;;;;;21.10;99.90;;;;;;4986733;28;19933;-62
2022/10/18 09:08:58;;;;;;;;;;;21.20;99.90;;;;;;5006533;28;19937;-61
2022/10/18 09:11:31;;;;;;;;;;;21.10;99.90;;;;;;5000347;28;20293;-61
2022/10/18 09:14:22;;;;;;;;;;;21.10;99.90;;;;;;4991359;28;19930;-63
2022/10/18 09:16:49;;;;;;;;;;;21.20;99.90;;;;;;5008138;28;19925;-62
2022/10/18 09:19:23;;;;;;;;;;;21.10;99.90;;;;;;5001661;28;20417;-62
2022/10/18 09:21:51;;;;;;;;;;;21.10;99.90;;;;;;4990389;28;20301;-61
2022/10/18 09:24:18;;;;;;;;;;;21.10;99.90;;;;;;4991887;28;19945;-63
2022/10/18 09:26:47;;;;;;;;;;;21.10;99.90;;;;;;4990349;28;19949;-61
2022/10/18 09:29:36;;;;;;;;;;;21.10;99.90;;;;;;5012852;28;20467;-62
2022/10/18 09:32:03;;;;;;;;;;;21.10;99.90;;;;;;4994021;28;19929;-61
2022/10/18 09:34:37;;;;;;;;;;;21.10;99.90;;;;;;4998412;28;19932;-64
2022/10/18 09:37:09;;;;;;;;;;;21.10;99.90;;;;;;4985057;28;19926;-61
2022/10/18 09:39:37;;;;;;;;;;;21.10;99.90;;;;;;4983908;28;19933;-62
2022/10/18 09:42:04;;;;;;;;;;;21.10;99.90;;;;;;5007255;28;19930;-63
2022/10/18 09:44:36;;;;;;;;;;;21.10;99.90;;;;;;4995384;28;19932;-60
2022/10/18 09:47:13;;;;;;;;;;;21.10;99.90;;;;;;5001852;28;19929;-57
2022/10/18 09:49:46;;;;;;;;;;;21.10;99.90;;;;;;4983508;28;20616;-62
2022/10/18 09:52:18;;;;;;;;;;;21.10;99.90;;;;;;5011469;28;19930;-62
2022/10/18 09:54:54;;;;;;;;;;;21.10;99.90;;;;;;5035256;23;20304;-65
2022/10/18 09:57:25;;;;;;;;;;;21.10;99.90;;;;;;5020243;28;19926;-67
2022/10/18 09:59:52;;;;;;;;;;;21.10;99.90;;;;;;5020981;28;20312;-67
2022/10/18 10:02:21;;;;;;;;;;;21.10;99.90;;;;;;5007479;28;19926;-66
2022/10/18 10:04:53;;;;;;;;;;;21.10;99.90;;;;;;5024558;28;19929;-68
2022/10/18 10:07:23;;;;;;;;;;;21.10;99.90;;;;;;5001341;28;20325;-69
2022/10/18 10:09:58;;;;;;;;;;;21.10;99.90;;;;;;5016553;28;20333;-68
2022/10/18 10:12:30;;;;;;;;;;;21.20;99.90;;;;;;5016195;28;19926;-67
2022/10/18 10:15:06;;;;;;;;;;;21.20;99.90;;;;;;5022205;28;19925;-67
2022/10/18 10:17:33;;;;;;;;;;;21.20;99.90;;;;;;5011688;28;19929;-69
2022/10/18 10:20:03;;;;;;;;;;;21.20;99.90;;;;;;5023608;28;19936;-67
2022/10/18 10:22:37;;;;;;;;;;;21.20;99.90;;;;;;5025520;28;20348;-68
2022/10/18 10:25:05;;;;;;;;;;;21.20;99.90;;;;;;5022792;28;20460;-67
2022/10/18 10:27:39;;;;;;;;;;;21.20;99.90;;;;;;5019065;28;19929;-68
2022/10/18 10:30:27;;;;;;;;;;;21.20;99.90;;;;;;5011536;28;19926;-65
2022/10/18 10:32:54;;;;;;;;;;;21.20;99.90;;;;;;5016602;28;19933;-67
2022/10/18 10:35:23;;;;;;;;;;;21.20;99.90;;;;;;5024655;28;19926;-67
2022/10/18 10:38:21;;;;;;;;;;;21.20;99.90;;;;;;5018620;28;19925;-66
2022/10/18 10:40:49;;;;;;;;;;;21.20;99.90;;;;;;5016203;28;19929;-65
2022/10/18 10:43:32;;;;;;;;;;;21.20;99.90;;;;;;5027548;28;19932;-64
2022/10/18 10:46:06;;;;;;;;;;;21.20;99.90;;;;;;5019272;28;20397;-66
2022/10/18 10:48:39;;;;;;;;;;;21.20;99.90;;;;;;5004913;28;19929;-63
2022/10/18 10:51:07;;;;;;;;;;;21.20;99.90;;;;;;5003130;28;19933;-66
2022/10/18 10:53:42;;;;;;;;;;;21.20;99.90;;;;;;5014597;28;19929;-65
2022/10/18 10:56:15;;;;;;;;;;;21.20;99.90;;;;;;5017660;28;19933;-66
2022/10/18 10:58:43;;;;;;;;;;;21.20;99.90;;;;;;5017109;28;19932;-65
2022/10/18 11:01:17;;;;;;;;;;;21.20;99.90;;;;;;5013698;28;20394;-67
2022/10/18 11:03:45;;;;;;;;;;;21.20;99.90;;;;;;5015405;28;19950;-66
2022/10/18 11:06:51;;;;;;;;;;;21.20;99.90;;;;;;5018029;28;20526;-67
2022/10/18 11:09:23;;;;;;;;;;;21.20;99.90;;;;;;4991724;28;19936;-68
2022/10/18 11:12:01;;;;;;;;;;;21.20;99.90;;;;;;4980816;28;19926;-66
2022/10/18 11:14:32;;;;;;;;;;;21.20;99.90;;;;;;4995067;28;20402;-65
2022/10/18 11:17:16;;;;;;;;;;;21.20;99.90;;;;;;4979090;28;20321;-67
2022/10/18 11:20:08;;;;;;;;;;;21.20;99.90;;;;;;4988322;28;19929;-66
2022/10/18 11:22:46;;;;;;;;;;;21.20;99.90;;;;;;4991940;28;19934;-67
2022/10/18 11:25:15;;;;;;;;;;;21.20;99.90;;;;;;4996057;28;20444;-67
2022/10/18 11:27:48;;;;;;;;;;;21.20;99.90;;;;;;4992164;28;20353;-67
2022/10/18 11:30:24;;;;;;;;;;;21.20;99.90;;;;;;4987493;28;19938;-66
2022/10/18 11:33:05;;;;;;;;;;;21.20;99.90;;;;;;4990946;28;20371;-67
2022/10/18 11:35:46;;;;;;;;;;;21.20;99.90;;;;;;4998208;28;19929;-65
2022/10/18 11:38:28;;;;;;;;;;;21.20;99.90;;;;;;4992302;28;20425;-66
2022/10/18 11:41:06;;;;;;;;;;;21.20;99.90;;;;;;5006052;28;20333;-65
2022/10/18 11:43:36;;;;;;;;;;;21.20;99.90;;;;;;5011458;28;20337;-65
2022/10/18 11:46:30;;;;;;;;;;;21.20;99.90;;;;;;5018118;28;20403;-64
2022/10/18 11:49:18;;;;;;;;;;;21.20;99.90;;;;;;5012861;28;20270;-68
2022/10/18 11:51:51;;;;;;;;;;;21.20;99.90;;;;;;5014714;28;19940;-66
2022/10/18 11:54:44;;;;;;;;;;;21.20;99.90;;;;;;5003172;28;19932;-67
2022/10/18 11:57:14;;;;;;;;;;;21.20;99.90;;;;;;5013305;28;19930;-65
2022/10/18 11:59:44;;;;;;;;;;;21.20;99.90;;;;;;5007776;28;19937;-65
2022/10/18 12:02:29;;;;;;;;;;;21.20;99.90;;;;;;5021741;28;19929;-68
2022/10/18 12:04:59;;;;;;;;;;;21.20;99.90;;;;;;5021452;28;19933;-66
2022/10/18 12:08:07;;;;;;;;;;;21.20;99.90;;;;;;5014256;28;19926;-67
2022/10/18 12:10:35;;;;;;;;;;;21.20;99.90;;;;;;5011255;28;19925;-69
2022/10/18 12:13:26;;;;;;;;;;;21.20;99.90;;;;;;5028742;28;20401;-68
2022/10/18 12:15:54;;;;;;;;;;;21.20;99.90;;;;;;5021393;28;19929;-70
2022/10/18 12:18:22;;;;;;;;;;;21.20;99.90;;;;;;5014703;28;19933;-66
2022/10/18 12:20:51;;;;;;;;;;;21.20;99.90;;;;;;5022550;28;19939;-68
2022/10/18 12:23:29;;;;;;;;;;;21.20;99.90;;;;;;5020156;28;20168;-66
2022/10/18 12:26:04;;;;;;;;;;;21.30;99.90;;;;;;5018361;28;19933;-68
2022/10/18 12:28:31;;;;;;;;;;;21.30;99.90;;;;;;5012119;28;19925;-67
2022/10/18 12:31:17;;;;;;;;;;;21.20;99.90;;;;;;5009293;28;19952;-71
2022/10/18 12:33:45;;;;;;;;;;;21.20;99.90;;;;;;5000902;28;19948;-64
2022/10/18 12:36:27;;;;;;;;;;;21.30;99.90;;;;;;5007624;28;19945;-63
2022/10/18 12:38:54;;;;;;;;;;;21.20;99.90;;;;;;5015453;28;19925;-66
2022/10/18 12:41:24;;;;;;;;;;;21.20;99.90;;;;;;5011307;28;19925;-64
2022/10/18 12:43:53;;;;;;;;;;;21.20;99.90;;;;;;5022190;28;19925;-64
2022/10/18 12:46:20;;;;;;;;;;;21.20;99.90;;;;;;5016696;28;20413;-66
2022/10/18 12:49:00;;;;;;;;;;;21.20;99.90;;;;;;5019825;28;19956;-60
2022/10/18 12:51:28;;;;;;;;;;;21.20;99.90;;;;;;5012298;28;19944;-63
2022/10/18 12:54:01;;;;;;;;;;;21.30;99.90;;;;;;5015476;28;19926;-65
2022/10/18 12:56:28;;;;;;;;;;;21.30;99.90;;;;;;5008023;28;19959;-65
2022/10/18 12:59:25;;;;;;;;;;;21.30;99.90;;;;;;5008743;28;19925;-67
2022/10/18 13:01:52;;;;;;;;;;;21.20;99.90;;;;;;5003687;28;20297;-67
2022/10/18 13:04:32;;;;;;;;;;;21.20;99.90;;;;;;5009161;28;19929;-65
2022/10/18 13:06:59;;;;;;;;;;;21.30;99.90;;;;;;5014279;28;19929;-66
2022/10/18 13:09:35;;;;;;;;;;;21.30;99.90;;;;;;5026931;28;19933;-67
2022/10/18 13:12:08;;;;;;;;;;;21.30;99.90;;;;;;5015070;28;20405;-69
2022/10/18 13:14:56;;;;;;;;;;;21.30;99.90;;;;;;5018265;28;19929;-70
2022/10/18 13:18:02;;;;;;;;;;;21.20;99.90;;;;;;5021161;28;20069;-66
2022/10/18 13:20:45;;;;;;;;;;;21.20;99.90;;;;;;5030207;28;19940;-64
2022/10/18 13:23:28;;;;;;;;;;;21.20;99.90;;;;;;5014136;28;19926;-67
2022/10/18 13:26:08;;;;;;;;;;;21.20;99.90;;;;;;5020787;28;19929;-70
2022/10/18 13:28:54;;;;;;;;;;;21.20;99.90;;;;;;5010279;28;19929;-67
2022/10/18 13:31:43;;;;;;;;;;;21.20;99.90;;;;;;5015789;28;20318;-65
2022/10/18 13:34:24;;;;;;;;;;;21.20;99.90;;;;;;5027347;28;19929;-70
2022/10/18 13:37:00;;;;;;;;;;;21.20;99.90;;;;;;5019153;28;19925;-67
2022/10/18 13:39:27;;;;;;;;;;;21.20;99.90;;;;;;5027635;28;20468;-70
2022/10/18 13:41:54;;;;;;;;;;;21.20;99.90;;;;;;5032023;28;19925;-70
2022/10/18 13:44:36;;;;;;;;;;;21.20;99.90;;;;;;5020087;28;19929;-71
2022/10/18 13:47:03;;;;;;;;;;;21.20;99.90;;;;;;5024846;28;20482;-69
2022/10/18 13:49:39;;;;;;;;;;;21.20;99.90;;;;;;5025009;28;19956;-68
2022/10/18 13:52:24;;;;;;;;;;;21.20;99.90;;;;;;5018905;28;19930;-68
2022/10/18 13:54:51;;;;;;;;;;;21.20;99.90;;;;;;5010178;28;19926;-66
2022/10/18 13:57:37;;;;;;;;;;;21.20;99.90;;;;;;5008724;28;19930;-69
2022/10/18 14:00:04;;;;;;;;;;;21.20;99.90;;;;;;5015934;28;19925;-66
2022/10/18 14:02:56;;;;;;;;;;;21.30;99.90;;;;;;5015640;28;19935;-67
2022/10/18 14:05:36;;;;;;;;;;;21.20;99.90;;;;;;5016560;28;19945;-68
2022/10/18 14:08:09;;;;;;;;;;;21.20;99.90;;;;;;5020903;28;20425;-68
2022/10/18 14:10:44;;;;;;;;;;;21.20;99.90;;;;;;5014568;28;19929;-65
2022/10/18 14:13:50;;;;;;;;;;;21.30;99.90;;;;;;5011866;28;19933;-68
2022/10/18 14:16:20;;;;;;;;;;;21.30;99.90;;;;;;5025954;28;19936;-67
2022/10/18 14:18:50;;;;;;;;;;;21.20;99.90;;;;;;5014723;28;19941;-65
2022/10/18 14:21:23;;;;;;;;;;;21.30;99.90;;;;;;5008243;28;19930;-64
2022/10/18 14:23:57;;;;;;;;;;;21.30;99.90;;;;;;5015245;28;19937;-67
2022/10/18 14:26:27;;;;;;;;;;;21.20;99.90;;;;;;5014163;28;20274;-68
2022/10/18 14:29:05;;;;;;;;;;;21.30;99.90;;;;;;5026071;28;20309;-67
2022/10/18 14:31:33;;;;;;;;;;;21.20;99.90;;;;;;5009505;28;19929;-67
2022/10/18 14:34:01;;;;;;;;;;;21.30;99.90;;;;;;5025147;28;19932;-68
2022/10/18 14:36:34;;;;;;;;;;;21.30;99.90;;;;;;5009101;28;19933;-70
2022/10/18 14:39:05;;;;;;;;;;;21.30;99.90;;;;;;5016397;28;19926;-68
2022/10/18 14:41:34;;;;;;;;;;;21.20;99.90;;;;;;5014921;28;19940;-67